createdAt,value
2023-04-13T00:01:11.623Z,100.00
2023-04-13T00:03:39.712Z,100.00
2023-04-13T00:06:22.905Z,100.00
2023-04-13T00:09:14.230Z,100.00
2023-04-13T00:12:01.424Z,100.00
2023-04-13T00:14:48.316Z,100.00
2023-04-13T00:17:36.000Z,100.00
2023-04-13T00:20:22.673Z,100.00
2023-04-13T00:23:09.326Z,100.00
2023-04-13T00:25:36.436Z,100.00
2023-04-13T00:28:03.966Z,100.00
2023-04-13T00:30:30.932Z,100.00
2023-04-13T00:32:57.849Z,100.00
2023-04-13T00:35:28.120Z,100.00
2023-04-13T00:37:55.028Z,100.00
2023-04-13T00:40:22.022Z,100.00
2023-04-13T00:42:50.891Z,100.00
2023-04-13T00:45:18.467Z,100.00
2023-04-13T00:47:47.057Z,100.00
2023-04-13T00:50:14.779Z,100.00
2023-04-13T00:52:43.033Z,100.00
2023-04-13T00:55:10.116Z,100.00
2023-04-13T00:57:41.077Z,100.00
2023-04-13T01:00:09.985Z,100.00
2023-04-13T01:02:42.314Z,100.00
2023-04-13T01:05:12.830Z,100.00
2023-04-13T01:08:43.933Z,100.00
2023-04-13T01:11:56.094Z,100.00
2023-04-13T01:15:01.696Z,100.00
2023-04-13T01:17:56.430Z,100.00
2023-04-13T01:20:51.761Z,100.00
2023-04-13T01:23:55.648Z,100.00
2023-04-13T01:26:22.963Z,100.00
2023-04-13T01:28:51.530Z,100.00
2023-04-13T01:31:20.119Z,100.00
2023-04-13T01:33:48.137Z,100.00
2023-04-13T01:36:16.178Z,100.00
2023-04-13T01:38:43.748Z,100.00
2023-04-13T01:41:10.687Z,100.00
2023-04-13T01:43:37.949Z,100.00
2023-04-13T01:46:11.768Z,100.00
2023-04-13T01:48:52.241Z,100.00
2023-04-13T01:51:23.206Z,100.00
2023-04-13T01:53:54.824Z,100.00
2023-04-13T01:56:23.381Z,100.00
2023-04-13T01:58:56.646Z,100.00
2023-04-13T02:01:24.292Z,100.00
2023-04-13T02:03:52.081Z,100.00
2023-04-13T02:06:19.609Z,100.00
2023-04-13T02:08:46.536Z,100.00
2023-04-13T02:11:13.584Z,100.00
2023-04-13T02:13:40.495Z,100.00
2023-04-13T02:16:07.837Z,100.00
2023-04-13T02:18:35.420Z,100.00
2023-04-13T02:21:09.729Z,100.00
2023-04-13T02:23:38.057Z,100.00
2023-04-13T02:26:07.828Z,100.00
2023-04-13T02:28:34.812Z,100.00
2023-04-13T02:31:03.839Z,100.00
2023-04-13T02:33:31.880Z,100.00
2023-04-13T02:35:59.814Z,100.00
2023-04-13T02:38:28.525Z,100.00
2023-04-13T02:40:56.705Z,100.00
2023-04-13T02:43:23.667Z,100.00
2023-04-13T02:45:50.657Z,100.00
2023-04-13T02:48:17.564Z,100.00
2023-04-13T02:50:44.457Z,100.00
2023-04-13T02:53:11.349Z,100.00
2023-04-13T02:55:39.291Z,100.00
2023-04-13T02:58:06.845Z,100.00
2023-04-13T03:00:33.771Z,100.00
2023-04-13T03:03:03.568Z,100.00
2023-04-13T03:05:33.824Z,100.00
2023-04-13T03:08:00.949Z,100.00
2023-04-13T03:10:27.951Z,100.00
2023-04-13T03:12:55.106Z,100.00
2023-04-13T03:15:22.120Z,100.00
2023-04-13T03:17:49.127Z,100.00
2023-04-13T03:20:17.166Z,100.00
2023-04-13T03:22:45.499Z,100.00
2023-04-13T03:25:12.790Z,100.00
2023-04-13T03:27:39.802Z,100.00
2023-04-13T03:30:07.867Z,100.00
2023-04-13T03:32:35.000Z,100.00
2023-04-13T03:35:02.153Z,100.00
2023-04-13T03:37:32.669Z,100.00
2023-04-13T03:39:59.630Z,100.00
2023-04-13T03:42:26.748Z,100.00
2023-04-13T03:44:53.707Z,100.00
2023-04-13T03:47:21.061Z,100.00
2023-04-13T03:49:47.994Z,100.00
2023-04-13T03:52:14.989Z,100.00
2023-04-13T03:54:41.908Z,100.00
2023-04-13T03:57:09.039Z,100.00
2023-04-13T03:59:36.000Z,100.00
2023-04-13T04:02:03.175Z,100.00
2023-04-13T04:04:30.300Z,100.00
2023-04-13T04:06:58.214Z,100.00
2023-04-13T04:09:25.766Z,100.00
2023-04-13T04:11:52.658Z,100.00
2023-04-13T04:14:20.659Z,100.00
2023-04-13T04:16:47.620Z,100.00
2023-04-13T04:19:14.666Z,100.00
2023-04-13T04:21:44.907Z,100.00
2023-04-13T04:24:12.724Z,100.00
2023-04-13T04:26:40.459Z,100.00
2023-04-13T04:29:09.113Z,100.00
2023-04-13T04:31:43.666Z,100.00
2023-04-13T04:34:11.883Z,100.00
2023-04-13T04:36:41.927Z,100.00
2023-04-13T04:39:10.144Z,100.00
2023-04-13T04:41:38.035Z,100.00
2023-04-13T04:44:07.970Z,100.00
2023-04-13T04:46:38.841Z,100.00
2023-04-13T04:49:05.847Z,100.00
2023-04-13T04:51:33.693Z,100.00
2023-04-13T04:54:02.365Z,100.00
2023-04-13T04:56:29.547Z,100.00
2023-04-13T04:58:57.381Z,100.00
2023-04-13T05:01:26.806Z,100.00
2023-04-13T05:03:54.219Z,100.00
2023-04-13T05:06:21.476Z,100.00
2023-04-13T05:08:48.442Z,100.00
2023-04-13T05:11:15.547Z,99.16
2023-04-13T05:13:42.433Z,98.66
2023-04-13T05:16:10.901Z,98.83
2023-04-13T05:18:48.461Z,98.46
2023-04-13T05:21:16.266Z,97.56
2023-04-13T05:23:43.765Z,98.68
2023-04-13T05:26:12.440Z,98.04
2023-04-13T05:28:39.934Z,97.33
2023-04-13T05:31:09.118Z,96.60
2023-04-13T05:33:36.193Z,96.28
2023-04-13T05:36:03.707Z,95.99
2023-04-13T05:38:31.003Z,95.43
2023-04-13T05:40:58.954Z,95.13
2023-04-13T05:43:26.947Z,94.92
2023-04-13T05:45:54.033Z,94.78
2023-04-13T05:48:21.700Z,95.35
2023-04-13T05:50:48.596Z,92.47
2023-04-13T05:53:15.472Z,89.46
2023-04-13T05:55:43.355Z,86.91
2023-04-13T05:58:11.215Z,86.11
2023-04-13T06:00:39.014Z,87.31
2023-04-13T06:03:07.661Z,83.89
2023-04-13T06:05:36.820Z,84.94
2023-04-13T06:08:04.175Z,83.76
2023-04-13T06:10:31.615Z,82.24
2023-04-13T06:12:59.113Z,82.95
2023-04-13T06:15:26.373Z,80.14
2023-04-13T06:17:56.240Z,82.43
2023-04-13T06:20:23.376Z,82.56
2023-04-13T06:22:50.276Z,79.29
2023-04-13T06:25:17.265Z,80.89
2023-04-13T06:27:44.422Z,79.62
2023-04-13T06:30:12.378Z,81.04
2023-04-13T06:32:39.519Z,76.02
2023-04-13T06:35:07.067Z,76.01
2023-04-13T06:37:37.173Z,76.76
2023-04-13T06:40:13.057Z,74.86
2023-04-13T06:42:41.600Z,74.96
2023-04-13T06:45:12.537Z,73.40
2023-04-13T06:47:43.571Z,69.57
2023-04-13T06:50:14.228Z,69.73
2023-04-13T06:52:46.067Z,67.10
2023-04-13T06:55:14.299Z,64.18
2023-04-13T06:57:41.888Z,63.01
2023-04-13T07:00:25.903Z,64.89
2023-04-13T07:02:58.466Z,61.56
2023-04-13T07:05:25.696Z,60.81
2023-04-13T07:07:52.549Z,62.87
2023-04-13T07:10:19.560Z,58.36
2023-04-13T07:12:46.704Z,61.76
2023-04-13T07:15:13.669Z,59.79
2023-04-13T07:17:40.769Z,60.63
2023-04-13T07:20:08.424Z,56.77
2023-04-13T07:22:35.765Z,59.19
2023-04-13T07:25:02.923Z,58.50
2023-04-13T07:27:29.838Z,58.77
2023-04-13T07:29:57.029Z,56.50
2023-04-13T07:32:30.328Z,58.63
2023-04-13T07:35:02.329Z,58.85
2023-04-13T07:37:29.993Z,57.27
2023-04-13T07:39:57.000Z,58.06
2023-04-13T07:42:25.480Z,57.63
2023-04-13T07:44:56.293Z,57.59
2023-04-13T07:47:23.366Z,53.27
2023-04-13T07:49:50.290Z,56.33
2023-04-13T07:52:17.353Z,54.09
2023-04-13T07:54:44.304Z,52.03
2023-04-13T07:57:11.218Z,55.31
2023-04-13T07:59:38.134Z,49.62
2023-04-13T08:02:05.884Z,52.40
2023-04-13T08:04:33.866Z,48.81
2023-04-13T08:07:05.043Z,48.75
2023-04-13T08:09:42.554Z,48.24
2023-04-13T08:12:10.239Z,47.60
2023-04-13T08:14:37.570Z,50.20
2023-04-13T08:17:06.357Z,46.15
2023-04-13T08:19:34.212Z,46.67
2023-04-13T08:22:01.344Z,49.52
2023-04-13T08:24:29.132Z,48.33
2023-04-13T08:26:58.387Z,49.00
2023-04-13T08:29:26.585Z,45.26
2023-04-13T08:31:53.763Z,48.81
2023-04-13T08:34:20.763Z,49.36
2023-04-13T08:36:48.005Z,45.67
2023-04-13T08:39:15.160Z,44.61
2023-04-13T08:41:47.377Z,44.87
2023-04-13T08:44:15.279Z,43.90
2023-04-13T08:46:45.178Z,45.15
2023-04-13T08:49:12.855Z,44.50
2023-04-13T08:51:42.237Z,45.29
2023-04-13T08:54:09.151Z,47.11
2023-04-13T08:56:45.860Z,48.02
2023-04-13T08:59:15.752Z,47.25
2023-04-13T09:01:45.548Z,48.34
2023-04-13T09:04:17.857Z,48.02
2023-04-13T09:06:48.065Z,47.65
2023-04-13T09:09:15.680Z,46.90
2023-04-13T09:11:43.721Z,44.72
2023-04-13T09:14:10.809Z,44.10
2023-04-13T09:16:42.379Z,42.64
2023-04-13T09:19:10.403Z,44.93
2023-04-13T09:21:41.512Z,44.71
2023-04-13T09:24:10.015Z,45.88
2023-04-13T09:26:50.383Z,43.66
2023-04-13T09:29:19.395Z,46.23
2023-04-13T09:31:47.778Z,45.08
2023-04-13T09:34:26.065Z,46.26
2023-04-13T09:36:54.911Z,47.34
2023-04-13T09:39:28.595Z,46.30
2023-04-13T09:41:56.299Z,45.29
2023-04-13T09:44:31.285Z,46.34
2023-04-13T09:46:59.415Z,46.99
2023-04-13T09:49:27.323Z,48.50
2023-04-13T09:51:54.975Z,44.32
2023-04-13T09:54:23.002Z,45.34
2023-04-13T09:56:54.850Z,46.16
2023-04-13T09:59:25.736Z,46.19
2023-04-13T10:01:54.124Z,45.42
2023-04-13T10:04:21.752Z,46.08
2023-04-13T10:06:49.192Z,46.91
2023-04-13T10:09:16.314Z,43.72
2023-04-13T10:11:50.113Z,44.08
2023-04-13T10:14:22.425Z,44.60
2023-04-13T10:16:55.628Z,43.01
2023-04-13T10:19:28.396Z,46.07
2023-04-13T10:21:56.672Z,44.21
2023-04-13T10:24:24.250Z,44.54
2023-04-13T10:26:55.535Z,46.38
2023-04-13T10:29:30.531Z,44.79
2023-04-13T10:32:03.557Z,46.91
2023-04-13T10:34:32.401Z,45.97
2023-04-13T10:37:04.021Z,44.77
2023-04-13T10:39:33.699Z,45.82
2023-04-13T10:42:05.011Z,45.49
2023-04-13T10:44:45.596Z,45.01
2023-04-13T10:47:21.158Z,45.53
2023-04-13T10:49:49.492Z,44.84
2023-04-13T10:52:17.057Z,45.67
2023-04-13T10:54:45.308Z,46.91
2023-04-13T10:57:12.869Z,49.11
2023-04-13T10:59:55.492Z,47.32
2023-04-13T11:02:32.442Z,46.11
2023-04-13T11:05:01.405Z,46.16
2023-04-13T11:07:28.978Z,44.47
2023-04-13T11:12:28.721Z,45.06
2023-04-13T11:14:55.648Z,46.04
2023-04-13T11:17:22.873Z,44.42
2023-04-13T11:19:51.636Z,44.67
2023-04-13T11:22:20.236Z,44.96
2023-04-13T11:24:51.199Z,44.21
2023-04-13T11:27:24.496Z,45.00
2023-04-13T11:30:05.422Z,44.06
2023-04-13T11:32:34.524Z,45.30
2023-04-13T11:35:15.305Z,47.32
2023-04-13T11:37:47.184Z,45.05
2023-04-13T11:40:17.528Z,46.05
2023-04-13T11:42:46.524Z,46.16
2023-04-13T11:45:19.075Z,44.43
2023-04-13T11:47:48.339Z,43.91
2023-04-13T11:50:16.773Z,45.27
2023-04-13T11:52:44.893Z,43.26
2023-04-13T11:55:22.508Z,44.97
2023-04-13T11:57:52.871Z,43.42
2023-04-13T12:00:26.537Z,42.52
2023-04-13T12:05:28.086Z,44.22
2023-04-13T12:07:57.444Z,45.35
2023-04-13T12:10:38.122Z,45.69
2023-04-13T12:16:02.271Z,45.49
2023-04-13T12:18:37.447Z,44.99
2023-04-13T12:21:06.123Z,44.31
2023-04-13T12:23:33.239Z,45.91
2023-04-13T12:26:41.239Z,45.51
2023-04-13T12:28:59.412Z,46.17
2023-04-13T12:31:33.300Z,46.34
2023-04-13T12:34:00.548Z,44.31
2023-04-13T12:36:31.697Z,45.12
2023-04-13T12:38:59.701Z,45.49
2023-04-13T12:41:27.352Z,45.29
2023-04-13T12:43:54.444Z,46.43
2023-04-13T12:46:21.458Z,46.27
2023-04-13T12:48:48.936Z,45.47
2023-04-13T12:51:15.932Z,46.97
2023-04-13T12:53:42.857Z,47.37
2023-04-13T12:56:09.951Z,48.28
2023-04-13T12:58:36.901Z,46.61
2023-04-13T13:01:04.352Z,46.93
2023-04-13T13:03:31.410Z,47.34
2023-04-13T13:05:58.306Z,46.32
2023-04-13T13:08:25.205Z,45.62
2023-04-13T13:10:52.193Z,46.68
2023-04-13T13:13:19.161Z,48.28
2023-04-13T13:15:46.155Z,49.35
2023-04-13T13:18:14.041Z,47.69
2023-04-13T13:20:44.490Z,48.43
2023-04-13T13:23:12.650Z,48.41
2023-04-13T13:25:42.397Z,49.38
2023-04-13T13:28:15.270Z,49.64
2023-04-13T13:30:43.291Z,50.44
2023-04-13T13:33:10.204Z,51.24
2023-04-13T13:35:37.098Z,51.46
2023-04-13T13:38:04.206Z,52.33
2023-04-13T13:40:31.352Z,51.68
2023-04-13T13:42:58.261Z,52.33
2023-04-13T13:45:25.246Z,53.68
2023-04-13T13:47:53.847Z,53.19
2023-04-13T13:50:24.128Z,54.36
2023-04-13T13:53:02.984Z,55.02
2023-04-13T13:55:31.874Z,54.70
2023-04-13T13:58:00.492Z,55.00
2023-04-13T14:00:27.502Z,56.54
2023-04-13T14:02:54.550Z,56.38
2023-04-13T14:05:22.396Z,56.22
2023-04-13T14:07:49.620Z,57.47
2023-04-13T14:10:16.908Z,56.94
2023-04-13T14:12:49.635Z,57.13
2023-04-13T14:15:17.721Z,57.03
2023-04-13T14:17:48.396Z,58.69
2023-04-13T14:20:22.785Z,58.42
2023-04-13T14:22:49.791Z,60.11
2023-04-13T14:25:16.685Z,61.46
2023-04-13T14:27:43.672Z,62.98
2023-04-13T14:30:10.823Z,65.51
2023-04-13T14:32:37.757Z,66.12
2023-04-13T14:35:04.991Z,67.25
2023-04-13T14:37:31.940Z,68.19
2023-04-13T14:39:58.853Z,67.56
2023-04-13T14:42:29.804Z,68.80
2023-04-13T14:44:56.962Z,69.79
2023-04-13T14:47:23.907Z,70.22
2023-04-13T14:49:51.007Z,70.66
2023-04-13T14:52:18.369Z,71.23
2023-04-13T14:54:45.265Z,71.63
2023-04-13T14:57:12.164Z,72.30
2023-04-13T14:59:39.187Z,73.27
2023-04-13T15:02:06.868Z,74.42
2023-04-13T15:04:33.836Z,74.21
2023-04-13T15:07:00.793Z,74.95
2023-04-13T15:09:27.645Z,76.14
2023-04-13T15:11:54.550Z,76.46
2023-04-13T15:14:21.673Z,77.27
2023-04-13T15:16:48.609Z,77.31
2023-04-13T15:19:15.739Z,77.76
2023-04-13T15:21:42.664Z,78.75
2023-04-13T15:24:11.878Z,79.42
2023-04-13T15:26:41.285Z,81.05
2023-04-13T15:29:09.006Z,82.78
2023-04-13T15:31:37.484Z,83.09
2023-04-13T15:34:06.457Z,82.65
2023-04-13T15:36:33.445Z,83.32
2023-04-13T15:39:00.809Z,83.34
2023-04-13T15:41:27.926Z,84.42
2023-04-13T15:43:56.589Z,84.12
2023-04-13T15:46:23.551Z,85.05
2023-04-13T15:48:50.676Z,86.21
2023-04-13T15:51:17.611Z,86.44
2023-04-13T15:53:44.553Z,87.76
2023-04-13T15:56:11.543Z,87.68
2023-04-13T15:58:38.634Z,88.89
2023-04-13T16:01:10.213Z,89.00
2023-04-13T16:03:37.846Z,88.85
2023-04-13T16:06:04.981Z,89.73
2023-04-13T16:08:31.855Z,89.40
2023-04-13T16:10:59.131Z,90.46
2023-04-13T16:13:34.782Z,90.78
2023-04-13T16:16:14.828Z,90.98
2023-04-13T16:18:42.201Z,91.02
2023-04-13T16:21:11.077Z,92.26
2023-04-13T16:23:38.464Z,91.86
2023-04-13T16:26:06.506Z,91.74
2023-04-13T16:28:34.723Z,92.57
2023-04-13T16:31:01.805Z,93.08
2023-04-13T16:33:30.050Z,93.63
2023-04-13T16:35:56.890Z,94.42
2023-04-13T16:38:23.742Z,94.70
2023-04-13T16:40:50.702Z,96.24
2023-04-13T16:43:17.646Z,95.45
2023-04-13T16:45:44.596Z,96.77
2023-04-13T16:48:11.564Z,96.70
2023-04-13T16:50:38.570Z,96.42
2023-04-13T16:53:05.438Z,97.03
2023-04-13T16:55:32.406Z,97.61
2023-04-13T16:57:59.307Z,98.59
2023-04-13T17:00:26.835Z,99.58
2023-04-13T17:02:53.851Z,100.00
2023-04-13T17:05:20.893Z,99.73
2023-04-13T17:07:48.377Z,100.00
2023-04-13T17:10:15.539Z,100.00
2023-04-13T17:12:42.514Z,100.00
2023-04-13T17:15:10.173Z,100.00
2023-04-13T17:17:38.527Z,100.00
2023-04-13T17:20:06.645Z,100.00
2023-04-13T17:22:33.623Z,100.00
2023-04-13T17:25:01.228Z,100.00
2023-04-13T17:27:28.182Z,100.00
2023-04-13T17:29:55.130Z,100.00
2023-04-13T17:32:22.542Z,100.00
2023-04-13T17:34:50.341Z,100.00
2023-04-13T17:37:18.093Z,100.00
2023-04-13T17:39:51.009Z,100.00
2023-04-13T17:42:18.745Z,100.00
2023-04-13T17:44:45.848Z,100.00
2023-04-13T17:47:12.820Z,100.00
2023-04-13T17:49:41.040Z,100.00
2023-04-13T17:52:07.935Z,100.00
2023-04-13T17:54:34.890Z,100.00
2023-04-13T17:57:02.389Z,100.00
2023-04-13T17:59:29.350Z,100.00
2023-04-13T18:01:57.961Z,100.00
2023-04-13T18:04:25.043Z,100.00
2023-04-13T18:06:52.168Z,100.00
2023-04-13T18:09:19.026Z,100.00
2023-04-13T18:11:45.887Z,100.00
2023-04-13T18:14:15.376Z,100.00
2023-04-13T18:16:42.976Z,100.00
2023-04-13T18:19:10.063Z,100.00
2023-04-13T18:21:37.369Z,100.00
2023-04-13T18:24:04.740Z,100.00
2023-04-13T18:26:31.852Z,100.00
2023-04-13T18:28:58.834Z,100.00
2023-04-13T18:31:25.860Z,100.00
2023-04-13T18:33:52.851Z,100.00
2023-04-13T18:36:19.775Z,100.00
2023-04-13T18:38:46.818Z,100.00
2023-04-13T18:41:41.040Z,100.00
2023-04-13T18:44:09.391Z,100.00
2023-04-13T18:46:36.398Z,100.00
2023-04-13T18:49:03.392Z,100.00
2023-04-13T18:51:32.188Z,100.00
2023-04-13T18:53:59.602Z,100.00
2023-04-13T18:56:26.706Z,100.00
2023-04-13T18:58:53.681Z,100.00
2023-04-13T19:01:20.948Z,100.00
2023-04-13T19:03:49.948Z,100.00
2023-04-13T19:06:17.295Z,100.00
2023-04-13T19:08:44.278Z,100.00
2023-04-13T19:11:11.620Z,100.00
2023-04-13T19:13:38.578Z,100.00
2023-04-13T19:16:06.609Z,100.00
2023-04-13T19:18:34.675Z,100.00
2023-04-13T19:21:01.638Z,100.00
2023-04-13T19:23:29.271Z,100.00
2023-04-13T19:25:56.196Z,100.00
2023-04-13T19:28:23.120Z,100.00
2023-04-13T19:30:50.035Z,100.00
2023-04-13T19:33:16.933Z,100.00
2023-04-13T19:35:44.027Z,100.00
2023-04-13T19:38:11.892Z,100.00
2023-04-13T19:40:38.824Z,100.00
2023-04-13T19:43:06.053Z,100.00
2023-04-13T19:45:33.034Z,100.00
2023-04-13T19:48:00.056Z,100.00
2023-04-13T19:50:27.099Z,100.00
2023-04-13T19:52:53.969Z,100.00
2023-04-13T19:55:21.170Z,100.00
2023-04-13T19:57:48.740Z,100.00
2023-04-13T20:00:20.615Z,100.00
2023-04-13T20:02:50.121Z,100.00
2023-04-13T20:05:18.889Z,100.00
2023-04-13T20:07:45.946Z,100.00
2023-04-13T20:10:13.081Z,100.00
2023-04-13T20:12:40.108Z,100.00
2023-04-13T20:15:07.850Z,100.00
2023-04-13T20:17:34.792Z,100.00
2023-04-13T20:20:01.932Z,100.00
2023-04-13T20:22:29.330Z,100.00
2023-04-13T20:24:56.285Z,100.00
2023-04-13T20:27:23.269Z,100.00
2023-04-13T20:29:51.492Z,100.00
2023-04-13T20:32:18.539Z,100.00
2023-04-13T20:34:45.481Z,100.00
2023-04-13T20:37:14.622Z,100.00
2023-04-13T20:39:50.712Z,100.00
2023-04-13T20:42:18.607Z,100.00
2023-04-13T20:44:46.688Z,100.00
2023-04-13T20:47:14.258Z,100.00
2023-04-13T20:49:44.017Z,100.00
2023-04-13T20:52:14.239Z,100.00
2023-04-13T20:54:41.741Z,100.00
2023-04-13T20:57:09.498Z,100.00
2023-04-13T20:59:37.579Z,100.00
2023-04-13T21:02:05.670Z,100.00
2023-04-13T21:04:32.771Z,100.00
2023-04-13T21:07:02.492Z,100.00
2023-04-13T21:09:30.853Z,100.00
2023-04-13T21:11:58.244Z,100.00
2023-04-13T21:14:25.993Z,100.00
2023-04-13T21:16:53.401Z,100.00
2023-04-13T21:19:20.842Z,100.00
2023-04-13T21:21:48.040Z,100.00
2023-04-13T21:24:15.098Z,100.00
2023-04-13T21:26:41.967Z,100.00
2023-04-13T21:29:09.310Z,100.00
2023-04-13T21:31:36.275Z,100.00
2023-04-13T21:34:04.148Z,100.00
2023-04-13T21:39:02.967Z,100.00
2023-04-13T21:41:30.047Z,100.00
2023-04-13T21:43:57.050Z,100.00
2023-04-13T21:46:25.097Z,100.00
2023-04-13T21:48:52.451Z,100.00
2023-04-13T21:51:19.325Z,100.00
2023-04-13T21:53:46.294Z,100.00
2023-04-13T21:56:13.176Z,100.00
2023-04-13T21:58:41.487Z,100.00
2023-04-13T22:01:08.746Z,100.00
2023-04-13T22:03:40.154Z,100.00
2023-04-13T22:06:09.230Z,100.00
2023-04-13T22:08:36.296Z,100.00
2023-04-13T22:11:03.461Z,100.00
2023-04-13T22:13:30.797Z,100.00
2023-04-13T22:15:57.925Z,100.00
2023-04-13T22:18:25.252Z,100.00
2023-04-13T22:20:52.251Z,100.00
2023-04-13T22:23:19.285Z,100.00
2023-04-13T22:25:53.704Z,100.00
2023-04-13T22:28:20.720Z,100.00
2023-04-13T22:30:47.696Z,100.00
2023-04-13T22:33:15.454Z,100.00
2023-04-13T22:35:42.352Z,100.00
2023-04-13T22:38:09.261Z,100.00
2023-04-13T22:40:39.437Z,100.00
2023-04-13T22:43:06.719Z,100.00
2023-04-13T22:45:33.734Z,100.00
2023-04-13T22:48:00.800Z,100.00
2023-04-13T22:50:27.794Z,100.00
2023-04-13T22:52:54.909Z,100.00
2023-04-13T22:55:22.000Z,100.00
2023-04-13T22:57:49.027Z,100.00
2023-04-13T23:00:16.144Z,100.00
2023-04-13T23:02:43.314Z,100.00
2023-04-13T23:05:10.399Z,100.00
2023-04-13T23:07:37.379Z,100.00
2023-04-13T23:10:04.960Z,100.00
2023-04-13T23:12:31.892Z,100.00
2023-04-13T23:14:58.808Z,100.00
2023-04-13T23:17:25.982Z,100.00
2023-04-13T23:19:56.383Z,100.00
2023-04-13T23:22:23.468Z,100.00
2023-04-13T23:24:50.445Z,100.00
2023-04-13T23:27:18.503Z,100.00
2023-04-13T23:29:49.780Z,100.00
2023-04-13T23:32:16.719Z,100.00
2023-04-13T23:34:43.993Z,100.00
2023-04-13T23:37:11.068Z,100.00
2023-04-13T23:39:38.266Z,100.00
2023-04-13T23:42:05.312Z,100.00
2023-04-13T23:44:32.282Z,100.00
2023-04-13T23:46:59.515Z,100.00
2023-04-13T23:49:26.746Z,100.00
2023-04-13T23:51:53.725Z,100.00
2023-04-13T23:54:20.887Z,100.00
2023-04-13T23:56:47.756Z,100.00
2023-04-13T23:59:14.670Z,100.00
